Time;durP1;ratioP1;P1;durP2;ratioP2;P2;SDS_P1;SDS_P2;PMS_P1;PMS_P2;Temp;Humidity;BMP_temperature;BMP_pressure;BME280_temperature;BME280_humidity;BME280_pressure;Samples;Min_cycle;Max_cycle;Signal;HPM_P1;HPM_P2
2022/04/09 00:01:06;;;;;;;;;;;3.50;99.90;;;;;;5058370;28;19925;-77
2022/04/09 00:03:35;;;;;;;;;;;3.50;99.90;;;;;;5057871;28;19925;-78
2022/04/09 00:06:03;;;;;;;;;;;3.50;99.90;;;;;;5058148;28;19924;-77
2022/04/09 00:08:29;;;;;;;;;;;3.50;99.90;;;;;;5058363;28;19928;-77
2022/04/09 00:10:56;;;;;;;;;;;3.60;99.90;;;;;;5057375;28;20411;-77
2022/04/09 00:13:23;;;;;;;;;;;3.60;99.90;;;;;;5057180;28;19924;-77
2022/04/09 00:15:50;;;;;;;;;;;3.60;99.90;;;;;;5056933;28;19929;-77
2022/04/09 00:18:16;;;;;;;;;;;3.60;99.90;;;;;;5057607;28;19925;-77
2022/04/09 00:20:45;;;;;;;;;;;3.50;99.90;;;;;;5057331;28;19931;-77
2022/04/09 00:23:13;;;;;;;;;;;3.60;99.90;;;;;;5057090;28;19925;-77
2022/04/09 00:25:40;;;;;;;;;;;3.60;99.90;;;;;;5056715;28;19925;-77
2022/04/09 00:28:06;;;;;;;;;;;3.60;99.90;;;;;;5055873;28;19925;-77
2022/04/09 00:30:33;;;;;;;;;;;3.70;99.90;;;;;;5056258;28;19933;-77
2022/04/09 00:33:00;;;;;;;;;;;3.70;99.90;;;;;;5057315;28;19924;-77
2022/04/09 00:35:27;;;;;;;;;;;3.70;99.90;;;;;;5055576;28;19999;-78
2022/04/09 00:37:55;;;;;;;;;;;3.70;99.90;;;;;;5056690;28;19978;-77
2022/04/09 00:40:25;;;;;;;;;;;3.70;99.90;;;;;;5057340;28;20370;-78
2022/04/09 00:42:52;;;;;;;;;;;3.70;99.90;;;;;;5057760;28;20015;-78
2022/04/09 00:45:19;;;;;;;;;;;3.60;99.90;;;;;;5057046;28;19924;-77
2022/04/09 00:47:46;;;;;;;;;;;3.60;99.90;;;;;;5058020;28;19925;-77
2022/04/09 00:50:13;;;;;;;;;;;3.60;99.90;;;;;;5057568;28;20007;-78
2022/04/09 00:52:44;;;;;;;;;;;3.60;99.90;;;;;;5057478;28;19925;-77
2022/04/09 00:55:13;;;;;;;;;;;3.70;99.90;;;;;;5056170;28;19925;-78
2022/04/09 00:57:41;;;;;;;;;;;3.70;99.90;;;;;;5056910;28;19925;-78
2022/04/09 01:00:10;;;;;;;;;;;3.70;99.90;;;;;;5055145;28;19947;-77
2022/04/09 01:02:39;;;;;;;;;;;3.80;99.90;;;;;;5056115;28;19925;-78
2022/04/09 01:05:07;;;;;;;;;;;3.80;99.90;;;;;;5054714;28;19936;-78
2022/04/09 01:07:33;;;;;;;;;;;3.90;99.90;;;;;;5055481;28;19925;-77
2022/04/09 01:10:00;;;;;;;;;;;3.80;99.90;;;;;;5055656;28;19951;-77
2022/04/09 01:12:29;;;;;;;;;;;3.80;99.90;;;;;;5056296;28;19924;-77
2022/04/09 01:14:55;;;;;;;;;;;3.80;99.90;;;;;;5055353;28;19928;-77
2022/04/09 01:17:22;;;;;;;;;;;3.80;99.90;;;;;;5056038;28;20016;-77
2022/04/09 01:19:49;;;;;;;;;;;3.80;99.90;;;;;;5055338;28;19932;-76
2022/04/09 01:22:18;;;;;;;;;;;3.90;99.90;;;;;;5056997;28;20451;-77
2022/04/09 01:24:45;;;;;;;;;;;3.90;99.90;;;;;;5055814;28;19932;-77
2022/04/09 01:27:12;;;;;;;;;;;3.80;99.90;;;;;;5056099;28;19928;-77
2022/04/09 01:29:43;;;;;;;;;;;3.70;99.90;;;;;;5056631;28;19963;-77
2022/04/09 01:32:11;;;;;;;;;;;3.70;99.90;;;;;;5056080;28;19925;-77
2022/04/09 01:34:38;;;;;;;;;;;3.60;99.90;;;;;;5054752;28;19929;-77
2022/04/09 01:37:05;;;;;;;;;;;3.60;99.90;;;;;;5053698;28;19932;-76
2022/04/09 01:39:35;;;;;;;;;;;3.60;99.90;;;;;;5053716;28;20400;-78
2022/04/09 01:42:02;;;;;;;;;;;3.60;99.90;;;;;;5056898;28;19940;-76
2022/04/09 01:44:30;;;;;;;;;;;3.60;99.90;;;;;;5056880;28;19924;-78
2022/04/09 01:46:57;;;;;;;;;;;3.70;99.90;;;;;;5056659;28;19947;-77
2022/04/09 01:49:25;;;;;;;;;;;3.70;99.90;;;;;;5057314;28;19988;-77
2022/04/09 01:51:51;;;;;;;;;;;3.70;99.90;;;;;;5060928;28;19939;-77
2022/04/09 01:54:18;;;;;;;;;;;3.80;99.90;;;;;;5074078;28;19925;-77
2022/04/09 01:56:47;;;;;;;;;;;3.80;99.90;;;;;;5056934;28;19925;-77
2022/04/09 01:59:13;;;;;;;;;;;3.80;99.90;;;;;;5057317;28;19932;-77
2022/04/09 02:01:40;;;;;;;;;;;3.80;99.90;;;;;;5057998;28;19925;-76
2022/04/09 02:04:07;;;;;;;;;;;3.90;99.90;;;;;;5056959;28;20315;-77
2022/04/09 02:06:34;;;;;;;;;;;3.90;99.90;;;;;;5058115;28;20354;-77
2022/04/09 02:09:01;;;;;;;;;;;3.90;99.90;;;;;;5059189;28;19976;-77
2022/04/09 02:11:30;;;;;;;;;;;3.90;99.90;;;;;;5059696;28;19956;-77
2022/04/09 02:13:58;;;;;;;;;;;3.90;99.90;;;;;;5059115;28;19929;-77
2022/04/09 02:16:25;;;;;;;;;;;3.90;99.90;;;;;;5085305;22;19924;-77
2022/04/09 02:18:52;;;;;;;;;;;4.00;99.90;;;;;;5068273;28;19929;-75
2022/04/09 02:21:19;;;;;;;;;;;4.00;99.90;;;;;;5069756;28;19925;-76
2022/04/09 02:23:45;;;;;;;;;;;4.00;99.90;;;;;;5069690;28;19924;-77
2022/04/09 02:26:13;;;;;;;;;;;4.00;99.90;;;;;;5075606;28;19932;-76
2022/04/09 02:28:41;;;;;;;;;;;3.90;99.90;;;;;;5073132;28;20323;-76
2022/04/09 02:31:09;;;;;;;;;;;3.90;99.90;;;;;;5072757;28;19946;-77
2022/04/09 02:33:40;;;;;;;;;;;3.80;99.90;;;;;;5072399;28;19925;-76
2022/04/09 02:36:10;;;;;;;;;;;3.80;99.90;;;;;;5072926;28;20414;-76
2022/04/09 02:38:38;;;;;;;;;;;3.80;99.90;;;;;;5072760;28;19952;-76
2022/04/09 02:41:05;;;;;;;;;;;3.70;99.90;;;;;;5072492;28;19924;-77
2022/04/09 02:43:32;;;;;;;;;;;3.70;99.90;;;;;;5072327;28;20365;-76
2022/04/09 02:45:59;;;;;;;;;;;3.70;99.90;;;;;;5072678;28;19925;-76
2022/04/09 02:48:27;;;;;;;;;;;3.60;99.90;;;;;;5072495;28;19924;-76
2022/04/09 02:50:55;;;;;;;;;;;3.60;99.90;;;;;;5072422;28;19955;-76
2022/04/09 02:53:24;;;;;;;;;;;3.60;99.90;;;;;;5070901;28;20308;-75
2022/04/09 02:55:52;;;;;;;;;;;3.60;99.90;;;;;;5072252;28;19924;-77
2022/04/09 02:58:19;;;;;;;;;;;3.60;99.90;;;;;;5072290;28;19990;-77
2022/04/09 03:00:49;;;;;;;;;;;3.60;99.90;;;;;;5071925;28;19925;-76
2022/04/09 03:03:19;;;;;;;;;;;3.60;99.90;;;;;;5072150;28;20302;-76
2022/04/09 03:05:49;;;;;;;;;;;3.60;99.90;;;;;;5072062;28;19925;-76
2022/04/09 03:08:16;;;;;;;;;;;3.60;99.90;;;;;;5072125;28;19925;-75
2022/04/09 03:10:43;;;;;;;;;;;3.50;99.90;;;;;;5072282;28;19925;-77
2022/04/09 03:13:10;;;;;;;;;;;3.50;99.90;;;;;;5071985;28;19924;-76
2022/04/09 03:15:37;;;;;;;;;;;3.50;99.90;;;;;;5071402;28;19978;-76
2022/04/09 03:18:04;;;;;;;;;;;3.50;99.90;;;;;;5072029;28;19971;-76
2022/04/09 03:20:34;;;;;;;;;;;3.40;99.90;;;;;;5071973;28;19925;-77
2022/04/09 03:23:03;;;;;;;;;;;3.40;99.90;;;;;;5071914;28;20311;-76
2022/04/09 03:25:43;;;;;;;;;;;3.50;99.90;;;;;;5071296;28;20399;-76
2022/04/09 03:28:11;;;;;;;;;;;3.50;99.90;;;;;;5071588;28;19933;-76
2022/04/09 03:30:38;;;;;;;;;;;3.50;99.90;;;;;;5071646;28;19939;-76
2022/04/09 03:33:08;;;;;;;;;;;3.60;99.90;;;;;;5068118;28;20038;-75
2022/04/09 03:35:36;;;;;;;;;;;3.60;99.90;;;;;;5081290;28;19928;-76
2022/04/09 03:38:05;;;;;;;;;;;3.60;99.90;;;;;;5089130;28;19924;-76
2022/04/09 03:40:43;;;;;;;;;;;3.60;99.90;;;;;;5072198;28;19978;-76
2022/04/09 03:43:10;;;;;;;;;;;3.60;99.90;;;;;;5072284;28;19974;-76
2022/04/09 03:45:38;;;;;;;;;;;3.60;99.90;;;;;;5072210;28;20395;-76
2022/04/09 03:48:06;;;;;;;;;;;3.60;99.90;;;;;;5072369;28;19970;-76
2022/04/09 03:50:36;;;;;;;;;;;3.60;99.90;;;;;;5071426;28;19925;-76
2022/04/09 03:53:04;;;;;;;;;;;3.50;99.90;;;;;;5071485;28;19943;-76
2022/04/09 03:55:32;;;;;;;;;;;3.60;99.90;;;;;;5071469;28;19931;-76
2022/04/09 03:58:01;;;;;;;;;;;3.50;99.90;;;;;;5071841;28;19974;-76
2022/04/09 04:00:28;;;;;;;;;;;3.50;99.90;;;;;;5071741;28;20023;-75
2022/04/09 04:02:57;;;;;;;;;;;3.50;99.90;;;;;;5072003;28;19968;-76
2022/04/09 04:05:25;;;;;;;;;;;3.50;99.90;;;;;;5071529;28;19925;-76
2022/04/09 04:07:53;;;;;;;;;;;3.50;99.90;;;;;;5071924;28;19924;-76
2022/04/09 04:10:21;;;;;;;;;;;3.40;99.90;;;;;;5071589;28;20015;-76
2022/04/09 04:12:57;;;;;;;;;;;3.40;99.90;;;;;;5071485;28;19924;-76
2022/04/09 04:15:30;;;;;;;;;;;3.40;99.90;;;;;;5075479;28;19956;-78
2022/04/09 04:17:57;;;;;;;;;;;3.40;99.90;;;;;;5072840;28;20396;-76
2022/04/09 04:20:28;;;;;;;;;;;3.50;99.90;;;;;;5070921;28;19963;-76
2022/04/09 04:22:58;;;;;;;;;;;3.50;99.90;;;;;;5071227;28;19970;-77
2022/04/09 04:25:25;;;;;;;;;;;3.50;99.90;;;;;;5070059;28;20404;-76
2022/04/09 04:27:54;;;;;;;;;;;3.50;99.90;;;;;;5088242;28;19925;-76
2022/04/09 04:30:24;;;;;;;;;;;3.50;99.90;;;;;;5070739;28;19924;-76
2022/04/09 04:32:51;;;;;;;;;;;3.50;99.90;;;;;;5071151;28;19925;-76
2022/04/09 04:35:22;;;;;;;;;;;3.50;99.90;;;;;;5072587;28;19996;-76
2022/04/09 04:37:50;;;;;;;;;;;3.50;99.90;;;;;;5071517;28;19925;-75
2022/04/09 04:40:21;;;;;;;;;;;3.50;99.90;;;;;;5070763;28;19964;-76
2022/04/09 04:42:54;;;;;;;;;;;3.50;99.90;;;;;;5071273;28;19928;-76
2022/04/09 04:45:25;;;;;;;;;;;3.40;99.90;;;;;;5076381;28;19924;-76
2022/04/09 04:47:55;;;;;;;;;;;3.50;99.90;;;;;;5073434;28;19930;-76
2022/04/09 04:50:26;;;;;;;;;;;3.40;99.90;;;;;;5070956;28;20422;-76
2022/04/09 04:52:54;;;;;;;;;;;3.40;99.90;;;;;;5071563;28;20016;-76
2022/04/09 04:55:23;;;;;;;;;;;3.40;99.90;;;;;;5070754;28;19924;-76
2022/04/09 04:57:52;;;;;;;;;;;3.40;99.90;;;;;;5070825;28;19963;-77
2022/04/09 05:00:31;;;;;;;;;;;3.40;99.90;;;;;;5070583;28;19981;-76
2022/04/09 05:03:03;;;;;;;;;;;3.50;99.90;;;;;;5064178;28;19964;-77
2022/04/09 05:05:32;;;;;;;;;;;3.50;99.90;;;;;;5070423;28;20011;-76
2022/04/09 05:07:59;;;;;;;;;;;3.50;99.90;;;;;;5087914;28;19931;-76
2022/04/09 05:10:27;;;;;;;;;;;3.50;99.90;;;;;;5087873;28;19924;-76
2022/04/09 05:12:59;;;;;;;;;;;3.50;99.90;;;;;;5091040;28;20315;-78
2022/04/09 05:15:26;;;;;;;;;;;3.50;99.90;;;;;;5094906;28;19929;-76
2022/04/09 05:17:55;;;;;;;;;;;3.50;99.90;;;;;;5075249;28;19924;-76
2022/04/09 05:20:23;;;;;;;;;;;3.50;99.90;;;;;;5092344;28;19924;-77
2022/04/09 05:22:51;;;;;;;;;;;3.50;99.90;;;;;;5075356;28;20023;-77
2022/04/09 05:25:19;;;;;;;;;;;3.50;99.90;;;;;;5075133;28;19932;-77
2022/04/09 05:27:48;;;;;;;;;;;3.40;99.90;;;;;;5108889;28;19974;-77
2022/04/09 05:30:24;;;;;;;;;;;3.40;99.90;;;;;;5074533;28;19924;-77
2022/04/09 05:32:53;;;;;;;;;;;3.40;99.90;;;;;;5075816;28;19924;-77
2022/04/09 05:35:21;;;;;;;;;;;3.40;99.90;;;;;;5074870;28;20330;-77
2022/04/09 05:37:52;;;;;;;;;;;3.30;99.90;;;;;;5074660;28;19924;-77
2022/04/09 05:40:23;;;;;;;;;;;3.30;99.90;;;;;;5074638;28;20027;-77
2022/04/09 05:42:52;;;;;;;;;;;3.40;99.90;;;;;;5074847;28;19924;-76
2022/04/09 05:45:19;;;;;;;;;;;3.40;99.90;;;;;;5073650;28;19964;-77
2022/04/09 05:47:48;;;;;;;;;;;3.40;99.90;;;;;;5070695;28;20442;-77
2022/04/09 05:50:21;;;;;;;;;;;3.40;99.90;;;;;;5064073;28;19948;-78
2022/04/09 05:52:50;;;;;;;;;;;3.40;99.90;;;;;;5058088;28;20380;-79
2022/04/09 05:55:18;;;;;;;;;;;3.50;99.90;;;;;;5059060;28;19925;-78
2022/04/09 05:57:45;;;;;;;;;;;3.50;99.90;;;;;;5058503;28;19929;-78
2022/04/09 06:00:15;;;;;;;;;;;3.60;99.90;;;;;;5059616;28;19974;-78
2022/04/09 06:02:42;;;;;;;;;;;3.60;99.90;;;;;;5058011;28;19924;-77
2022/04/09 06:05:23;;;;;;;;;;;3.70;99.90;;;;;;5054819;28;19925;-77
2022/04/09 06:07:51;;;;;;;;;;;3.80;99.90;;;;;;5054016;28;19924;-77
2022/04/09 06:10:19;;;;;;;;;;;3.90;99.90;;;;;;5054245;28;19925;-77
2022/04/09 06:12:47;;;;;;;;;;;3.90;99.90;;;;;;5054323;28;19924;-77
2022/04/09 06:15:21;;;;;;;;;;;4.00;99.90;;;;;;5054366;28;20371;-77
2022/04/09 06:17:51;;;;;;;;;;;4.10;99.90;;;;;;5054890;28;19925;-77
2022/04/09 06:20:18;;;;;;;;;;;4.10;99.90;;;;;;5062620;28;19931;-78
2022/04/09 06:22:47;;;;;;;;;;;4.20;99.90;;;;;;5061642;28;20419;-77
2022/04/09 06:25:18;;;;;;;;;;;4.30;99.90;;;;;;5062370;28;19947;-77
2022/04/09 06:27:45;;;;;;;;;;;4.40;99.90;;;;;;5058704;28;19929;-78
2022/04/09 06:30:14;;;;;;;;;;;4.40;99.90;;;;;;5057775;28;19925;-78
2022/04/09 06:32:46;;;;;;;;;;;4.50;99.90;;;;;;5058565;28;19929;-82
2022/04/09 06:35:14;;;;;;;;;;;4.60;99.90;;;;;;5061052;28;19936;-80
2022/04/09 06:37:41;;;;;;;;;;;4.60;99.90;;;;;;5059182;28;19994;-80
2022/04/09 06:40:10;;;;;;;;;;;4.70;99.90;;;;;;5060116;28;19973;-80
2022/04/09 06:42:38;;;;;;;;;;;4.80;99.90;;;;;;5058802;28;19955;-78
2022/04/09 06:45:28;;;;;;;;;;;4.90;99.90;;;;;;5056536;28;19932;-78
2022/04/09 06:48:13;;;;;;;;;;;4.90;99.90;;;;;;5058611;28;19932;-78
2022/04/09 06:50:49;;;;;;;;;;;4.90;99.90;;;;;;5074976;28;19931;-77
2022/04/09 06:53:16;;;;;;;;;;;5.00;99.90;;;;;;5059909;28;19967;-78
2022/04/09 06:55:44;;;;;;;;;;;5.00;99.90;;;;;;5069329;28;19928;-78
2022/04/09 06:58:11;;;;;;;;;;;5.00;99.90;;;;;;5070565;28;19936;-80
2022/04/09 07:00:40;;;;;;;;;;;5.00;99.90;;;;;;5072639;28;19924;-79
2022/04/09 07:03:10;;;;;;;;;;;5.10;99.90;;;;;;5072230;28;19988;-77
2022/04/09 07:05:37;;;;;;;;;;;5.30;99.90;;;;;;5072477;28;19971;-77
2022/04/09 07:08:07;;;;;;;;;;;5.40;99.90;;;;;;5078318;28;19924;-78
2022/04/09 07:10:36;;;;;;;;;;;5.40;99.90;;;;;;5070777;28;19929;-78
2022/04/09 07:13:04;;;;;;;;;;;5.40;99.90;;;;;;5089098;28;19951;-81
2022/04/09 07:15:31;;;;;;;;;;;5.40;99.90;;;;;;5085110;28;19940;-77
2022/04/09 07:17:58;;;;;;;;;;;5.50;99.90;;;;;;5084861;28;19924;-78
2022/04/09 07:20:25;;;;;;;;;;;5.50;99.90;;;;;;5086271;28;20410;-78
2022/04/09 07:22:52;;;;;;;;;;;5.70;99.90;;;;;;5082562;28;20384;-77
2022/04/09 07:25:19;;;;;;;;;;;5.80;99.90;;;;;;5082837;28;19946;-78
2022/04/09 07:27:47;;;;;;;;;;;5.80;99.90;;;;;;5080570;28;19968;-78
2022/04/09 07:30:16;;;;;;;;;;;5.90;99.90;;;;;;5074307;28;19928;-77
2022/04/09 07:32:43;;;;;;;;;;;5.90;99.90;;;;;;5067176;28;20023;-79
2022/04/09 07:35:10;;;;;;;;;;;5.90;99.90;;;;;;5083602;28;19929;-79
2022/04/09 07:37:40;;;;;;;;;;;6.00;99.90;;;;;;5066216;28;19925;-80
2022/04/09 07:40:07;;;;;;;;;;;6.10;99.90;;;;;;5055007;28;20019;-78
2022/04/09 07:42:34;;;;;;;;;;;6.10;99.90;;;;;;5053794;28;19928;-78
2022/04/09 07:45:01;;;;;;;;;;;6.30;99.90;;;;;;5052387;28;19925;-77
2022/04/09 07:47:30;;;;;;;;;;;6.40;99.90;;;;;;5051800;28;19928;-77
2022/04/09 07:49:57;;;;;;;;;;;6.50;99.90;;;;;;5068581;28;19928;-78
2022/04/09 07:52:23;;;;;;;;;;;6.50;99.90;;;;;;5052110;28;19952;-78
2022/04/09 07:54:50;;;;;;;;;;;6.50;99.90;;;;;;5051252;28;20011;-78
2022/04/09 07:57:17;;;;;;;;;;;6.60;99.90;;;;;;5051277;28;19936;-78
2022/04/09 07:59:43;;;;;;;;;;;6.80;99.90;;;;;;5051404;28;19967;-78
2022/04/09 08:02:10;;;;;;;;;;;6.90;99.90;;;;;;5051355;28;20328;-78
2022/04/09 08:04:38;;;;;;;;;;;6.70;99.90;;;;;;5051508;28;19935;-78
2022/04/09 08:07:05;;;;;;;;;;;6.80;99.90;;;;;;5068095;28;19933;-78
2022/04/09 08:09:32;;;;;;;;;;;6.70;99.90;;;;;;5050902;28;19928;-78
2022/04/09 08:11:59;;;;;;;;;;;6.60;99.90;;;;;;5080431;28;19925;-78
2022/04/09 08:14:26;;;;;;;;;;;6.60;99.90;;;;;;5070790;28;20430;-78
2022/04/09 08:16:53;;;;;;;;;;;6.40;99.90;;;;;;5071324;28;19970;-79
2022/04/09 08:19:21;;;;;;;;;;;6.40;99.90;;;;;;5087656;28;19924;-78
2022/04/09 08:21:49;;;;;;;;;;;6.40;99.90;;;;;;5071352;28;20400;-77
2022/04/09 08:24:16;;;;;;;;;;;6.50;99.90;;;;;;5070819;28;19924;-78
2022/04/09 08:26:42;;;;;;;;;;;6.60;99.90;;;;;;5071795;28;19924;-78
2022/04/09 08:29:10;;;;;;;;;;;6.60;99.90;;;;;;5072842;28;19925;-78
2022/04/09 08:31:37;;;;;;;;;;;;;;;;;;5085033;28;19928;-77
2022/04/09 08:34:04;;;;;;;;;;;6.70;99.90;;;;;;5065754;28;20384;-78
2022/04/09 08:36:31;;;;;;;;;;;6.70;99.90;;;;;;5061639;28;19932;-78
2022/04/09 08:38:59;;;;;;;;;;;6.70;99.90;;;;;;5071555;28;19928;-78
2022/04/09 08:41:26;;;;;;;;;;;6.60;99.90;;;;;;5072631;28;19929;-78
2022/04/09 08:43:53;;;;;;;;;;;6.70;99.90;;;;;;5072277;28;19924;-78
2022/04/09 08:46:20;;;;;;;;;;;6.80;99.90;;;;;;5072675;28;19932;-78
2022/04/09 08:48:48;;;;;;;;;;;7.00;99.90;;;;;;5074178;28;19928;-77
2022/04/09 08:51:14;;;;;;;;;;;6.90;99.90;;;;;;5074254;28;19925;-78
2022/04/09 08:53:42;;;;;;;;;;;6.90;99.90;;;;;;5073615;28;20294;-79
2022/04/09 08:56:11;;;;;;;;;;;7.10;99.90;;;;;;5071967;28;19928;-78
2022/04/09 08:58:38;;;;;;;;;;;7.20;99.90;;;;;;5067443;28;19931;-78
2022/04/09 09:01:04;;;;;;;;;;;7.30;99.90;;;;;;5061631;28;19925;-79
2022/04/09 09:03:35;;;;;;;;;;;;;;;;;;5066212;28;19982;-76
2022/04/09 09:06:02;;;;;;;;;;;7.40;99.90;;;;;;5084602;28;19974;-78
2022/04/09 09:08:36;;;;;;;;;;;7.30;99.90;;;;;;5065062;28;19929;-77
2022/04/09 09:11:03;;;;;;;;;;;7.40;99.90;;;;;;5064951;28;19935;-78
2022/04/09 09:13:45;;;;;;;;;;;7.50;99.90;;;;;;5061759;28;19928;-78
2022/04/09 09:16:18;;;;;;;;;;;7.50;99.90;;;;;;5073191;28;20413;-79
2022/04/09 09:18:45;;;;;;;;;;;7.50;99.90;;;;;;5073755;28;20452;-78
2022/04/09 09:21:16;;;;;;;;;;;7.60;99.90;;;;;;5073447;28;19924;-78
2022/04/09 09:23:43;;;;;;;;;;;7.80;99.90;;;;;;5063420;28;20352;-77
2022/04/09 09:26:09;;;;;;;;;;;7.70;99.90;;;;;;5071940;28;19982;-78
2022/04/09 09:28:38;;;;;;;;;;;7.80;99.90;;;;;;5071938;28;19924;-78
2022/04/09 09:31:05;;;;;;;;;;;8.00;99.90;;;;;;5071768;28;19931;-77
2022/04/09 09:33:32;;;;;;;;;;;8.10;99.90;;;;;;5071595;28;19925;-77
2022/04/09 09:36:00;;;;;;;;;;;8.10;99.90;;;;;;5071934;28;19986;-78
2022/04/09 09:38:28;;;;;;;;;;;8.30;99.90;;;;;;5087633;28;19924;-78
2022/04/09 09:40:55;;;;;;;;;;;8.40;99.90;;;;;;5087633;28;20376;-78
2022/04/09 09:43:23;;;;;;;;;;;8.40;99.90;;;;;;5087572;28;19928;-78
2022/04/09 09:45:52;;;;;;;;;;;8.50;99.90;;;;;;5070742;28;20441;-77
2022/04/09 09:48:22;;;;;;;;;;;8.40;99.90;;;;;;5070722;28;19928;-79
2022/04/09 09:50:49;;;;;;;;;;;8.30;99.90;;;;;;5073323;28;20311;-79
2022/04/09 09:53:16;;;;;;;;;;;8.30;99.90;;;;;;5089488;28;19932;-77
2022/04/09 09:55:44;;;;;;;;;;;8.40;99.90;;;;;;5070840;28;19924;-78
2022/04/09 09:58:12;;;;;;;;;;;8.70;99.90;;;;;;5090296;28;20363;-79
2022/04/09 10:00:39;;;;;;;;;;;8.70;99.90;;;;;;5091342;28;19928;-79
2022/04/09 10:03:09;;;;;;;;;;;8.90;99.90;;;;;;5078032;28;19939;-78
2022/04/09 10:05:38;;;;;;;;;;;9.00;99.90;;;;;;5073274;28;19975;-78
2022/04/09 10:08:05;;;;;;;;;;;;;;;;;;5077988;28;19978;-78
2022/04/09 10:10:35;;;;;;;;;;;9.10;99.90;;;;;;5072275;28;19924;-78
2022/04/09 10:13:02;;;;;;;;;;;8.90;99.90;;;;;;5078105;28;19924;-77
2022/04/09 10:15:29;;;;;;;;;;;9.00;99.90;;;;;;5077801;28;19971;-79
2022/04/09 10:17:57;;;;;;;;;;;9.20;99.90;;;;;;5077881;28;19925;-79
2022/04/09 10:20:26;;;;;;;;;;;9.40;99.90;;;;;;5074631;28;19970;-78
2022/04/09 10:22:55;;;;;;;;;;;9.30;99.90;;;;;;5075240;28;20023;-78
2022/04/09 10:25:25;;;;;;;;;;;9.30;99.90;;;;;;5073276;28;20013;-79
2022/04/09 10:27:53;;;;;;;;;;;9.20;99.90;;;;;;5075340;28;19947;-79
2022/04/09 10:30:20;;;;;;;;;;;9.30;99.90;;;;;;5076862;28;19928;-78
2022/04/09 10:32:48;;;;;;;;;;;9.40;99.90;;;;;;5093696;28;19924;-79
2022/04/09 10:35:27;;;;;;;;;;;9.70;99.90;;;;;;5077254;28;19924;-79
2022/04/09 10:37:54;;;;;;;;;;;;;;;;;;5077821;28;19929;-79
2022/04/09 10:40:21;;;;;;;;;;;10.10;99.90;;;;;;5075420;28;19936;-80
2022/04/09 10:42:49;;;;;;;;;;;9.80;99.90;;;;;;5079419;28;19928;-79
2022/04/09 10:45:16;;;;;;;;;;;8.70;99.90;;;;;;5074367;28;19925;-81
2022/04/09 10:48:01;;;;;;;;;;;8.10;99.90;;;;;;5095155;28;19924;-80
2022/04/09 10:50:52;;;;;;;;;;;7.80;99.90;;;;;;5077153;28;19925;-78
2022/04/09 10:53:20;;;;;;;;;;;7.90;99.90;;;;;;5075788;28;19924;-79
2022/04/09 10:56:02;;;;;;;;;;;8.10;99.90;;;;;;5069266;28;20293;-79
2022/04/09 10:58:29;;;;;;;;;;;8.30;99.90;;;;;;5058419;28;19929;-78
2022/04/09 11:00:55;;;;;;;;;;;8.60;99.90;;;;;;5082824;28;19924;-80
2022/04/09 11:03:33;;;;;;;;;;;8.80;99.90;;;;;;5080077;28;19925;-80
2022/04/09 11:06:19;;;;;;;;;;;9.10;99.90;;;;;;5065542;28;20337;-81
2022/04/09 11:08:59;;;;;;;;;;;9.40;99.90;;;;;;5065176;28;19929;-80
2022/04/09 11:11:26;;;;;;;;;;;9.80;99.90;;;;;;5074576;28;19975;-79
2022/04/09 11:13:53;;;;;;;;;;;;;;;;;;5091664;28;19925;-77
2022/04/09 11:16:21;;;;;;;;;;;8.50;99.90;;;;;;5074898;28;19928;-78
2022/04/09 11:18:48;;;;;;;;;;;8.40;99.90;;;;;;5093259;28;19929;-78
2022/04/09 11:21:15;;;;;;;;;;;8.50;99.90;;;;;;5072823;28;20015;-77
2022/04/09 11:23:44;;;;;;;;;;;8.80;99.90;;;;;;5075453;28;19931;-80
2022/04/09 11:26:17;;;;;;;;;;;8.90;99.90;;;;;;5071373;28;20006;-78
2022/04/09 11:28:44;;;;;;;;;;;9.20;99.90;;;;;;5075310;28;19956;-78
2022/04/09 11:31:11;;;;;;;;;;;9.40;99.90;;;;;;5080385;28;19936;-77
2022/04/09 11:33:55;;;;;;;;;;;9.80;99.90;;;;;;5080270;28;19924;-77
2022/04/09 11:36:22;;;;;;;;;;;;;;;;;;5090214;28;19982;-79
2022/04/09 11:38:51;;;;;;;;;;;7.80;99.90;;;;;;5068873;28;21272;-78
2022/04/09 11:41:22;;;;;;;;;;;7.40;99.90;;;;;;5091799;28;19977;-78
2022/04/09 11:43:50;;;;;;;;;;;6.90;99.90;;;;;;5076288;28;19925;-78
2022/04/09 11:46:17;;;;;;;;;;;6.50;99.90;;;;;;5054669;28;19924;-78
2022/04/09 11:48:49;;;;;;;;;;;6.20;99.90;;;;;;5058648;28;19935;-78
2022/04/09 11:51:18;;;;;;;;;;;6.00;99.90;;;;;;5074304;28;19929;-79
2022/04/09 11:53:44;;;;;;;;;;;6.10;99.90;;;;;;5077809;28;19928;-79
2022/04/09 11:56:11;;;;;;;;;;;6.30;99.90;;;;;;5063916;28;19932;-79
2022/04/09 11:58:40;;;;;;;;;;;6.70;99.90;;;;;;5079819;28;19925;-80
2022/04/09 12:01:08;;;;;;;;;;;7.00;99.90;;;;;;5062170;28;19925;-80
2022/04/09 12:03:35;;;;;;;;;;;7.70;99.90;;;;;;5077989;28;19929;-79
2022/04/09 12:06:02;;;;;;;;;;;8.90;99.90;;;;;;5068800;28;19925;-79
2022/04/09 12:08:29;;;;;;;;;;;8.70;99.90;;;;;;5062729;28;19936;-79
2022/04/09 12:10:57;;;;;;;;;;;8.10;99.90;;;;;;5064906;28;19932;-79
2022/04/09 12:13:24;;;;;;;;;;;7.80;99.90;;;;;;5072554;28;19924;-79
2022/04/09 12:15:53;;;;;;;;;;;8.90;99.90;;;;;;5072647;28;19932;-80
2022/04/09 12:18:26;;;;;;;;;;;10.80;99.90;;;;;;5073762;28;19924;-80
2022/04/09 12:20:53;;;;;;;;;;;;;;;;;;5075135;28;20015;-80
2022/04/09 12:23:28;;;;;;;;;;;12.60;99.90;;;;;;5074139;28;20395;-77
2022/04/09 12:25:55;;;;;;;;;;;13.30;99.90;;;;;;5068345;28;19924;-76
2022/04/09 12:28:23;;;;;;;;;;;14.00;99.90;;;;;;5088239;28;19939;-77
2022/04/09 12:30:51;;;;;;;;;;;12.70;99.90;;;;;;5073460;28;19928;-78
2022/04/09 12:33:20;;;;;;;;;;;11.30;99.90;;;;;;5068743;28;19983;-80
2022/04/09 12:35:47;;;;;;;;;;;10.20;99.90;;;;;;5088700;28;20383;-79
2022/04/09 12:38:29;;;;;;;;;;;9.40;99.90;;;;;;5073293;28;20353;-79
2022/04/09 12:40:58;;;;;;;;;;;9.00;99.90;;;;;;5066884;28;19928;-79
2022/04/09 12:43:34;;;;;;;;;;;8.80;99.90;;;;;;5074475;28;19925;-77
2022/04/09 12:46:05;;;;;;;;;;;8.70;99.90;;;;;;5063543;28;19951;-79
2022/04/09 12:48:44;;;;;;;;;;;8.80;99.90;;;;;;5073497;28;19925;-79
2022/04/09 12:51:13;;;;;;;;;;;8.70;99.90;;;;;;5075713;28;19964;-78
2022/04/09 12:53:40;;;;;;;;;;;8.70;99.90;;;;;;5074874;28;19960;-80
2022/04/09 12:56:07;;;;;;;;;;;9.20;99.90;;;;;;5055950;28;19935;-78
2022/04/09 12:58:34;;;;;;;;;;;10.80;99.90;;;;;;5055920;28;19925;-78
2022/04/09 13:01:01;;;;;;;;;;;11.90;99.90;;;;;;5051457;28;19974;-77
2022/04/09 13:03:28;;;;;;;;;;;12.60;99.90;;;;;;5053440;28;20301;-78
2022/04/09 13:05:56;;;;;;;;;;;13.20;99.90;;;;;;5057664;28;19925;-78
2022/04/09 13:08:23;;;;;;;;;;;13.80;99.90;;;;;;5058142;28;19944;-79
2022/04/09 13:10:50;;;;;;;;;;;13.90;99.90;;;;;;5066505;28;20000;-79
2022/04/09 13:13:17;;;;;;;;;;;14.20;99.90;;;;;;5076609;28;19924;-79
2022/04/09 13:15:44;;;;;;;;;;;14.20;99.90;;;;;;5075953;28;19925;-78
2022/04/09 13:18:11;;;;;;;;;;;14.40;99.90;;;;;;5076554;28;20375;-79
2022/04/09 13:20:38;;;;;;;;;;;14.10;99.90;;;;;;5076510;28;20015;-79
2022/04/09 13:23:05;;;;;;;;;;;;;;;;;;5075999;28;19938;-77
2022/04/09 13:25:34;;;;;;;;;;;12.20;99.90;;;;;;5075592;28;19930;-77
2022/04/09 13:28:02;;;;;;;;;;;11.70;99.90;;;;;;5074461;28;20284;-78
2022/04/09 13:30:29;;;;;;;;;;;11.00;99.90;;;;;;5073999;28;19924;-78
2022/04/09 13:32:56;;;;;;;;;;;10.80;99.90;;;;;;5074780;28;20438;-79
2022/04/09 13:35:23;;;;;;;;;;;11.40;99.90;;;;;;5076202;28;20403;-79
2022/04/09 13:37:50;;;;;;;;;;;12.00;99.90;;;;;;5077781;28;19955;-78
2022/04/09 13:40:17;;;;;;;;;;;12.40;99.90;;;;;;5079366;28;19925;-78
2022/04/09 13:42:45;;;;;;;;;;;12.30;99.90;;;;;;5074286;28;19925;-78
2022/04/09 13:45:14;;;;;;;;;;;11.90;99.90;;;;;;5064466;28;19925;-78
2022/04/09 13:47:41;;;;;;;;;;;12.40;99.90;;;;;;5058818;28;19979;-78
2022/04/09 13:50:08;;;;;;;;;;;13.10;99.90;;;;;;5076470;28;19925;-78
2022/04/09 13:52:35;;;;;;;;;;;13.00;99.90;;;;;;5059178;28;19929;-78
2022/04/09 13:55:02;;;;;;;;;;;12.20;99.90;;;;;;5058607;28;19928;-79
2022/04/09 13:57:29;;;;;;;;;;;12.10;99.90;;;;;;5069777;28;20404;-78
2022/04/09 13:59:57;;;;;;;;;;;12.10;99.90;;;;;;5087694;28;19972;-78
2022/04/09 14:02:24;;;;;;;;;;;12.20;99.90;;;;;;5071812;28;19936;-78
2022/04/09 14:04:51;;;;;;;;;;;12.80;99.90;;;;;;5075781;28;19928;-78
2022/04/09 14:07:17;;;;;;;;;;;13.00;99.90;;;;;;5065084;28;19928;-77
2022/04/09 14:09:44;;;;;;;;;;;12.90;99.90;;;;;;5070759;28;19925;-77
2022/04/09 14:12:11;;;;;;;;;;;12.20;99.90;;;;;;5071742;28;20392;-77
2022/04/09 14:14:38;;;;;;;;;;;11.70;99.90;;;;;;5073495;28;20015;-78
2022/04/09 14:17:06;;;;;;;;;;;11.10;99.90;;;;;;5099086;22;19924;-73
2022/04/09 14:19:33;;;;;;;;;;;10.90;99.90;;;;;;5050577;28;20288;-77
2022/04/09 14:22:00;;;;;;;;;;;10.90;99.90;;;;;;5052957;28;20396;-76
2022/04/09 14:24:27;;;;;;;;;;;11.90;99.90;;;;;;5052022;28;19932;-75
2022/04/09 14:26:54;;;;;;;;;;;12.40;99.90;;;;;;5052660;28;19925;-75
2022/04/09 14:29:21;;;;;;;;;;;12.10;99.90;;;;;;5051917;28;19933;-75
2022/04/09 14:31:49;;;;;;;;;;;11.40;99.90;;;;;;5052677;28;19925;-77
2022/04/09 14:34:17;;;;;;;;;;;11.40;99.90;;;;;;5050502;28;19925;-76
2022/04/09 14:36:44;;;;;;;;;;;11.60;99.90;;;;;;5052225;28;19992;-76
2022/04/09 14:39:11;;;;;;;;;;;11.50;99.90;;;;;;5051978;28;19960;-75